Terminal Aerodrome Forecast
Issued by NWS

Home | Current Version | Previous Version | Text Only | Print | Product List | Glossary On
Versions: 1 2 3 4 5 6 7 8 9 10 11 12 13 14 15 16 17 18 19 20 21 22 23 24 25 26 27 28 29 30 31
000
FTUS43 KDDC 150536
TAFHYS
TAF
KHYS 150536Z 1506/1606 VRB06KT P6SM BKN035
     FM150645 34023G30KT P6SM BKN006
     FM150900 33023G30KT P6SM OVC020
     FM151600 32027G35KT P6SM BKN025
     FM152300 32021G30KT P6SM SCT035=

USA.gov is the U.S. government's official web portal to all federal, state and local government web resources and services.